Time;durP1;ratioP1;P1;durP2;ratioP2;P2;SDS_P1;SDS_P2;PMS_P1;PMS_P2;Temp;Humidity;BMP_temperature;BMP_pressure;BME280_temperature;BME280_humidity;BME280_pressure;Samples;Min_cycle;Max_cycle;Signal;HPM_P1;HPM_P2
2024/01/25 00:01:28;;;;;;;23.50;4.45;;;7.90;99.90;;;;;;5012943;28;20277;-60
2024/01/25 00:03:55;;;;;;;32.05;5.78;;;7.90;99.90;;;;;;5013151;28;20634;-60
2024/01/25 00:06:25;;;;;;;22.10;4.18;;;7.80;99.90;;;;;;5012305;28;20696;-60
2024/01/25 00:08:54;;;;;;;35.25;4.70;;;7.70;99.90;;;;;;5012809;28;20218;-61
2024/01/25 00:11:22;;;;;;;28.02;4.00;;;7.70;99.90;;;;;;5012814;28;20258;-60
2024/01/25 00:13:50;;;;;;;30.83;5.05;;;7.80;99.90;;;;;;5012609;28;20720;-60
2024/01/25 00:16:18;;;;;;;28.00;4.55;;;7.80;99.90;;;;;;5012930;28;20265;-60
2024/01/25 00:18:46;;;;;;;25.10;4.07;;;7.80;99.90;;;;;;5012567;28;20199;-61
2024/01/25 00:21:14;;;;;;;26.40;4.72;;;7.90;99.90;;;;;;5012816;28;20204;-61
2024/01/25 00:23:42;;;;;;;19.40;4.32;;;7.90;99.90;;;;;;5012566;28;20230;-60
2024/01/25 00:26:11;;;;;;;28.00;4.88;;;8.00;99.90;;;;;;5012777;28;20282;-60
2024/01/25 00:28:39;;;;;;;26.33;3.75;;;8.00;99.90;;;;;;5012131;28;20797;-60
2024/01/25 00:31:07;;;;;;;27.50;4.75;;;8.10;99.90;;;;;;5012535;28;20241;-61
2024/01/25 00:33:35;;;;;;;24.35;3.92;;;8.10;99.90;;;;;;5000720;28;20200;-61
2024/01/25 00:36:04;;;;;;;23.90;3.83;;;8.20;99.90;;;;;;4992688;28;20235;-60
2024/01/25 00:38:32;;;;;;;28.60;3.85;;;8.20;99.90;;;;;;4992765;28;20299;-60
2024/01/25 00:41:00;;;;;;;21.90;4.25;;;8.20;99.90;;;;;;4992502;28;20227;-60
2024/01/25 00:43:30;;;;;;;23.80;3.58;;;8.20;99.90;;;;;;4992702;28;20243;-60
2024/01/25 00:45:58;;;;;;;28.13;4.18;;;8.20;99.90;;;;;;4992631;28;20271;-60
2024/01/25 00:48:27;;;;;;;30.00;4.90;;;8.10;99.90;;;;;;4992721;28;20204;-60
2024/01/25 00:50:56;;;;;;;29.73;4.50;;;8.10;99.90;;;;;;4992787;28;20238;-60
2024/01/25 00:53:24;;;;;;;19.80;3.83;;;8.00;99.90;;;;;;4992467;28;20204;-60
2024/01/25 00:55:52;;;;;;;28.30;4.80;;;8.00;99.90;;;;;;4991985;28;20267;-60
2024/01/25 00:58:21;;;;;;;31.50;3.95;;;7.90;99.90;;;;;;4992377;28;20319;-60
2024/01/25 01:00:51;;;;;;;20.30;4.10;;;7.90;99.90;;;;;;4992276;28;20673;-60
2024/01/25 01:03:19;;;;;;;23.02;3.75;;;7.90;99.90;;;;;;4992218;28;20204;-60
2024/01/25 01:05:47;;;;;;;15.38;3.10;;;7.90;99.90;;;;;;4992358;28;20286;-60
2024/01/25 01:08:16;;;;;;;19.15;3.45;;;7.90;99.90;;;;;;4992339;28;20218;-61
2024/01/25 01:10:44;;;;;;;26.63;3.97;;;7.80;99.90;;;;;;4992360;28;20200;-61
2024/01/25 01:13:12;;;;;;;26.30;4.03;;;7.80;99.90;;;;;;4991859;28;20266;-60
2024/01/25 01:15:40;;;;;;;18.88;3.22;;;7.80;99.90;;;;;;4992443;28;20330;-60
2024/01/25 01:18:09;;;;;;;21.77;3.38;;;7.80;99.90;;;;;;5004014;28;20306;-60
2024/01/25 01:20:37;;;;;;;23.35;3.75;;;7.90;99.90;;;;;;5011898;28;20203;-60
2024/01/25 01:23:05;;;;;;;30.08;4.68;;;7.90;99.90;;;;;;5011520;28;20203;-60
2024/01/25 01:25:33;;;;;;;27.92;4.40;;;7.90;99.90;;;;;;5011521;28;20253;-60
2024/01/25 01:28:01;;;;;;;29.33;4.70;;;8.00;99.90;;;;;;5011761;28;20207;-60
2024/01/25 01:30:29;;;;;;;20.63;4.20;;;8.00;99.90;;;;;;5011824;28;20355;-60
2024/01/25 01:32:57;;;;;;;22.08;3.38;;;8.00;99.90;;;;;;5011353;28;20243;-60
2024/01/25 01:35:26;;;;;;;28.50;3.60;;;8.00;99.90;;;;;;5011482;28;20235;-60
2024/01/25 01:37:54;;;;;;;26.90;4.80;;;8.00;99.90;;;;;;5011357;28;20223;-60
2024/01/25 01:40:22;;;;;;;26.25;4.18;;;8.00;99.90;;;;;;5011556;28;20648;-60
2024/01/25 01:42:50;;;;;;;19.25;3.90;;;8.00;99.90;;;;;;5011323;28;20234;-60
2024/01/25 01:45:18;;;;;;;31.30;4.65;;;7.90;99.90;;;;;;5011743;28;20306;-60
2024/01/25 01:47:46;;;;;;;22.98;3.83;;;7.90;99.90;;;;;;5011367;28;20242;-60
2024/01/25 01:50:14;;;;;;;19.73;3.78;;;7.90;99.90;;;;;;5011693;28;20211;-60
2024/01/25 01:52:43;;;;;;;19.33;3.45;;;7.80;99.90;;;;;;5011018;28;20214;-60
2024/01/25 01:55:11;;;;;;;21.42;3.50;;;7.80;99.90;;;;;;5011600;28;20285;-60
2024/01/25 01:57:39;;;;;;;25.60;4.32;;;7.80;99.90;;;;;;5011302;28;20223;-60
2024/01/25 02:00:09;;;;;;;19.33;3.75;;;7.80;99.90;;;;;;5011698;28;20257;-60
2024/01/25 02:02:37;;;;;;;27.95;3.58;;;7.70;99.90;;;;;;5010931;28;20250;-60
2024/01/25 02:05:05;;;;;;;18.50;4.10;;;7.70;99.90;;;;;;5011181;28;20797;-60
2024/01/25 02:07:33;;;;;;;20.70;4.05;;;7.60;99.90;;;;;;5014774;28;20776;-60
2024/01/25 02:10:02;;;;;;;20.35;3.90;;;7.50;99.90;;;;;;5015107;28;20680;-60
2024/01/25 02:12:30;;;;;;;33.10;3.63;;;7.40;99.90;;;;;;5014890;28;20258;-60
2024/01/25 02:14:58;;;;;;;24.92;5.05;;;7.30;99.90;;;;;;5015087;28;20235;-60
2024/01/25 02:17:26;;;;;;;31.00;4.40;;;7.30;99.90;;;;;;5014909;28;20270;-60
2024/01/25 02:19:54;;;;;;;27.83;4.63;;;7.20;99.90;;;;;;5015015;28;20215;-60
2024/01/25 02:22:23;;;;;;;25.13;4.47;;;7.30;99.90;;;;;;5014555;28;20685;-60
2024/01/25 02:24:51;;;;;;;25.30;4.45;;;7.30;99.90;;;;;;5014978;28;20231;-60
2024/01/25 02:27:19;;;;;;;22.85;3.65;;;7.40;99.90;;;;;;5013589;28;20698;-60
2024/01/25 02:29:47;;;;;;;21.23;4.50;;;7.40;99.90;;;;;;5014632;28;20213;-60
2024/01/25 02:32:15;;;;;;;24.25;3.58;;;7.50;99.90;;;;;;5014324;28;20654;-60
2024/01/25 02:34:43;;;;;;;27.77;4.03;;;7.50;99.90;;;;;;5006832;28;20227;-60
2024/01/25 02:37:12;;;;;;;35.70;4.68;;;7.60;99.90;;;;;;4995082;28;20207;-60
2024/01/25 02:39:42;;;;;;;25.95;4.07;;;7.60;99.90;;;;;;4995170;28;20215;-60
2024/01/25 02:42:10;;;;;;;33.42;4.75;;;7.50;99.90;;;;;;4994761;28;20209;-60
2024/01/25 02:44:37;;;;;;;32.95;4.53;;;7.50;99.90;;;;;;4994931;28;20231;-60
2024/01/25 02:47:05;;;;;;;25.40;3.85;;;7.50;99.90;;;;;;4994714;28;20278;-60
2024/01/25 02:49:33;;;;;;;19.95;3.65;;;7.60;99.90;;;;;;4994827;28;20642;-60
2024/01/25 02:52:01;;;;;;;23.58;3.92;;;7.50;99.90;;;;;;4994482;28;20214;-60
2024/01/25 02:54:29;;;;;;;25.45;3.72;;;7.50;99.90;;;;;;5012674;28;20712;-60
2024/01/25 02:56:59;;;;;;;19.77;3.47;;;7.50;99.90;;;;;;5014424;28;20239;-60
2024/01/25 02:59:27;;;;;;;27.50;4.47;;;7.50;99.90;;;;;;5014159;28;20258;-60
2024/01/25 03:01:55;;;;;;;34.35;5.13;;;7.50;99.90;;;;;;5014082;28;20211;-60
2024/01/25 03:04:23;;;;;;;23.98;4.57;;;7.50;99.90;;;;;;5013840;28;20653;-60
2024/01/25 03:06:51;;;;;;;20.38;4.10;;;7.40;99.90;;;;;;5013334;28;20227;-60
2024/01/25 03:09:21;;;;;;;24.92;3.78;;;7.50;99.90;;;;;;5012159;28;20196;-60
2024/01/25 03:11:48;;;;;;;25.05;3.58;;;7.50;99.90;;;;;;5010617;28;20287;-60
2024/01/25 03:14:19;;;;;;;22.52;3.97;;;7.50;99.90;;;;;;5009925;28;20208;-60
2024/01/25 03:16:47;;;;;;;22.45;3.78;;;7.40;99.90;;;;;;5012769;28;20749;-60
2024/01/25 03:19:15;;;;;;;26.55;5.07;;;7.50;99.90;;;;;;5009273;28;20394;-60
2024/01/25 03:21:43;;;;;;;24.42;4.88;;;7.50;99.90;;;;;;4994654;28;20215;-60
2024/01/25 03:24:10;;;;;;;28.58;5.10;;;7.50;99.90;;;;;;4994295;28;20208;-60
2024/01/25 03:26:38;;;;;;;16.83;3.92;;;7.50;99.90;;;;;;5011370;28;20250;-60
2024/01/25 03:29:06;;;;;;;23.05;3.90;;;7.60;99.90;;;;;;5003141;28;20204;-60
2024/01/25 03:31:36;;;;;;;26.17;4.07;;;7.60;99.90;;;;;;4994057;28;20247;-60
2024/01/25 03:34:04;;;;;;;20.77;3.83;;;7.60;99.90;;;;;;4993781;28;20207;-60
2024/01/25 03:36:33;;;;;;;26.60;4.38;;;7.60;99.90;;;;;;4993924;28;20236;-60
2024/01/25 03:39:01;;;;;;;18.45;3.33;;;7.60;99.90;;;;;;4993614;28;20671;-60
2024/01/25 03:41:29;;;;;;;31.35;4.35;;;7.60;99.90;;;;;;5006240;28;20204;-60
2024/01/25 03:43:57;;;;;;;22.52;3.60;;;7.60;99.90;;;;;;5012274;28;20239;-60
2024/01/25 03:46:25;;;;;;;24.92;4.40;;;7.70;99.90;;;;;;4993312;28;20760;-60
2024/01/25 03:48:54;;;;;;;20.55;4.60;;;7.70;99.90;;;;;;4993445;28;20208;-60
2024/01/25 03:51:23;;;;;;;29.63;3.40;;;7.70;99.90;;;;;;4993463;28;20654;-60
2024/01/25 03:53:52;;;;;;;25.02;3.97;;;7.70;99.90;;;;;;4993572;28;20294;-60
2024/01/25 03:56:22;;;;;;;24.73;3.90;;;7.70;99.90;;;;;;4993662;28;20665;-60
2024/01/25 03:58:50;;;;;;;20.17;3.88;;;7.70;99.90;;;;;;4993264;28;20215;-60
2024/01/25 04:01:18;;;;;;;24.20;3.65;;;7.80;99.90;;;;;;5005240;28;20239;-59
2024/01/25 04:03:46;;;;;;;29.48;3.58;;;7.80;99.90;;;;;;5005605;28;20449;-60
2024/01/25 04:06:15;;;;;;;22.67;3.85;;;7.80;99.90;;;;;;4993468;28;20232;-60
2024/01/25 04:08:43;;;;;;;31.42;3.55;;;7.80;99.90;;;;;;4993387;28;20247;-60
2024/01/25 04:11:13;;;;;;;16.42;3.92;;;7.80;99.90;;;;;;4993033;28;20632;-60
2024/01/25 04:13:43;;;;;;;27.40;4.38;;;7.80;99.90;;;;;;4993359;28;20235;-59
2024/01/25 04:16:14;;;;;;;23.75;4.00;;;7.80;99.90;;;;;;4993311;28;20698;-60
2024/01/25 04:18:42;;;;;;;24.10;4.40;;;7.80;99.90;;;;;;4992998;28;20223;-60
2024/01/25 04:21:11;;;;;;;26.38;4.10;;;7.90;99.90;;;;;;4993057;28;20220;-60
2024/01/25 04:23:40;;;;;;;27.35;3.97;;;7.90;99.90;;;;;;4995364;28;20250;-59
2024/01/25 04:26:08;;;;;;;23.83;4.00;;;7.90;99.90;;;;;;5012838;28;20239;-60
2024/01/25 04:28:36;;;;;;;32.95;4.25;;;7.90;99.90;;;;;;4998617;28;20235;-59
2024/01/25 04:31:04;;;;;;;32.13;4.47;;;7.90;99.90;;;;;;4992008;28;20663;-60
2024/01/25 04:33:31;;;;;;;28.02;4.05;;;7.90;99.90;;;;;;4992922;28;20200;-60
2024/01/25 04:36:00;;;;;;;22.10;4.20;;;7.90;99.90;;;;;;4992680;28;20235;-60
2024/01/25 04:38:28;;;;;;;21.10;4.07;;;7.90;99.90;;;;;;4992457;28;20579;-60
2024/01/25 04:40:57;;;;;;;21.60;3.92;;;7.90;99.90;;;;;;4992797;28;20692;-61
2024/01/25 04:43:25;;;;;;;24.60;4.07;;;7.90;99.90;;;;;;4992585;28;20555;-60
2024/01/25 04:45:53;;;;;;;25.77;4.65;;;7.80;99.90;;;;;;4992740;28;20234;-59
2024/01/25 04:48:21;;;;;;;22.88;4.22;;;7.80;99.90;;;;;;4992813;28;20204;-60
2024/01/25 04:50:49;;;;;;;26.98;4.90;;;7.80;99.90;;;;;;4992761;28;20262;-60
2024/01/25 04:53:17;;;;;;;21.02;4.28;;;7.70;99.90;;;;;;4992103;28;20331;-59
2024/01/25 04:55:45;;;;;;;31.63;4.25;;;7.70;99.90;;;;;;4992698;28;20224;-60
2024/01/25 04:58:14;;;;;;;21.23;3.83;;;7.70;99.90;;;;;;4995559;28;20286;-60
2024/01/25 05:00:42;;;;;;;23.52;4.63;;;7.70;99.90;;;;;;5011578;28;20219;-60
2024/01/25 05:03:10;;;;;;;22.42;4.25;;;7.60;99.90;;;;;;5008990;28;20210;-60
2024/01/25 05:05:38;;;;;;;24.10;3.95;;;7.60;99.90;;;;;;4992164;28;20314;-60
2024/01/25 05:08:07;;;;;;;31.85;3.83;;;7.60;99.90;;;;;;4992306;28;20666;-60
2024/01/25 05:10:35;;;;;;;26.98;4.95;;;7.60;99.90;;;;;;4992520;28;20204;-60
2024/01/25 05:13:03;;;;;;;22.55;4.22;;;7.60;99.90;;;;;;4992005;28;20261;-60
2024/01/25 05:15:32;;;;;;;30.52;4.78;;;7.60;99.90;;;;;;4992068;28;20741;-60
2024/01/25 05:18:00;;;;;;;25.58;4.20;;;7.70;99.90;;;;;;4992035;28;20203;-60
2024/01/25 05:20:32;;;;;;;25.20;4.35;;;7.70;99.90;;;;;;4991893;28;20219;-60
2024/01/25 05:23:00;;;;;;;27.08;4.70;;;7.60;99.90;;;;;;4991121;28;20216;-60
2024/01/25 05:25:28;;;;;;;26.75;4.80;;;7.60;99.90;;;;;;5000131;28;20262;-60
2024/01/25 05:27:56;;;;;;;30.23;4.72;;;7.70;99.90;;;;;;5011383;28;20301;-60
2024/01/25 05:30:24;;;;;;;33.58;5.03;;;7.60;99.90;;;;;;5011499;28;20207;-60
2024/01/25 05:32:54;;;;;;;26.88;5.18;;;7.70;99.90;;;;;;5008772;28;20318;-60
2024/01/25 05:35:23;;;;;;;28.10;4.50;;;7.70;99.90;;;;;;5009413;28;20625;-60
2024/01/25 05:37:52;;;;;;;27.33;4.53;;;7.60;99.90;;;;;;5010532;28;20214;-60
2024/01/25 05:40:19;;;;;;;29.98;4.50;;;7.60;99.90;;;;;;5000014;28;20278;-60
2024/01/25 05:42:57;;;;;;;24.00;4.03;;;7.60;99.90;;;;;;5008181;22;20204;-73
2024/01/25 05:45:26;;;;;;;29.88;4.20;;;7.60;99.90;;;;;;5028015;28;20321;-73
2024/01/25 05:47:55;;;;;;;29.50;4.85;;;7.60;99.90;;;;;;5035145;28;20210;-73
2024/01/25 05:50:23;;;;;;;24.13;4.47;;;7.50;99.90;;;;;;5027524;28;20656;-73
2024/01/25 05:52:51;;;;;;;25.90;4.03;;;7.50;99.90;;;;;;5034573;28;20230;-73
2024/01/25 05:55:19;;;;;;;26.45;4.32;;;7.50;99.90;;;;;;5035001;28;20276;-72
2024/01/25 05:57:47;;;;;;;37.13;4.93;;;7.50;99.90;;;;;;5034908;28;20199;-73
2024/01/25 06:00:15;;;;;;;35.47;4.75;;;7.40;99.90;;;;;;5034988;28;20254;-73
2024/01/25 06:02:48;;;;;;;22.15;3.67;;;7.40;99.90;;;;;;5034377;28;20203;-73
2024/01/25 06:05:18;;;;;;;28.05;4.40;;;7.30;99.90;;;;;;5052016;22;20233;-60
2024/01/25 06:07:48;;;;;;;24.42;3.78;;;7.30;99.90;;;;;;5054053;28;20235;-61
2024/01/25 06:10:16;;;;;;;20.35;3.28;;;7.30;99.90;;;;;;5054841;28;20201;-60
2024/01/25 06:12:44;;;;;;;25.08;4.68;;;7.20;99.90;;;;;;5054813;28;20206;-61
2024/01/25 06:15:12;;;;;;;27.17;4.22;;;7.10;99.90;;;;;;5054945;28;20202;-61
2024/01/25 06:17:40;;;;;;;34.65;4.82;;;7.00;99.90;;;;;;5054280;28;20666;-61
2024/01/25 06:20:10;;;;;;;28.05;5.03;;;7.00;99.90;;;;;;5054604;28;20348;-61
2024/01/25 06:22:39;;;;;;;27.67;5.10;;;7.00;99.90;;;;;;5054161;28;20239;-61
2024/01/25 06:25:08;;;;;;;25.35;5.05;;;7.00;99.90;;;;;;5054944;28;20279;-61
2024/01/25 06:27:36;;;;;;;37.63;5.63;;;7.00;99.90;;;;;;5054407;28;20205;-61
2024/01/25 06:30:05;;;;;;;25.65;5.70;;;7.00;99.90;;;;;;5054580;28;20234;-61
2024/01/25 06:32:33;;;;;;;30.10;5.03;;;7.00;99.90;;;;;;5054063;28;20425;-61
2024/01/25 06:35:01;;;;;;;27.58;4.32;;;7.00;99.90;;;;;;5054383;28;20210;-62
2024/01/25 06:37:29;;;;;;;25.52;5.47;;;6.90;99.90;;;;;;5054519;28;20705;-61
2024/01/25 06:39:58;;;;;;;20.88;3.53;;;6.80;99.90;;;;;;5054528;28;20230;-60
2024/01/25 06:42:26;;;;;;;26.92;5.05;;;6.70;99.90;;;;;;5054012;28;20233;-61
2024/01/25 06:44:55;;;;;;;21.13;3.90;;;6.70;99.90;;;;;;5054339;28;20297;-61
2024/01/25 06:47:23;;;;;;;19.92;3.72;;;6.70;99.90;;;;;;5054228;28;20610;-61
2024/01/25 06:49:51;;;;;;;35.40;4.43;;;6.60;99.90;;;;;;5053872;28;20197;-60
2024/01/25 06:52:20;;;;;;;24.48;4.20;;;6.60;99.90;;;;;;5053278;28;20213;-60
2024/01/25 06:54:48;;;;;;;21.00;3.38;;;6.60;99.90;;;;;;5053814;28;20703;-61
2024/01/25 06:57:18;;;;;;;29.10;4.28;;;6.60;99.90;;;;;;5053995;28;20690;-60
2024/01/25 06:59:46;;;;;;;24.40;3.60;;;6.60;99.90;;;;;;5053848;28;20257;-61
2024/01/25 07:02:14;;;;;;;30.35;5.30;;;6.60;99.90;;;;;;5053626;28;20252;-60
2024/01/25 07:04:43;;;;;;;30.95;4.30;;;6.50;99.90;;;;;;5051401;28;20230;-61
2024/01/25 07:07:11;;;;;;;22.27;3.80;;;6.60;99.90;;;;;;5052774;28;20210;-61
2024/01/25 07:09:39;;;;;;;30.40;4.30;;;6.50;99.90;;;;;;5050995;28;20584;-60
2024/01/25 07:12:07;;;;;;;28.35;3.58;;;6.50;99.90;;;;;;5052807;28;20206;-60
2024/01/25 07:14:36;;;;;;;29.02;4.75;;;6.50;99.90;;;;;;5053189;28;20771;-61
2024/01/25 07:17:05;;;;;;;26.45;3.85;;;6.70;99.90;;;;;;5053255;28;20216;-61
2024/01/25 07:19:33;;;;;;;22.25;4.07;;;6.70;99.90;;;;;;5052762;28;20237;-60
2024/01/25 07:22:01;;;;;;;29.45;4.90;;;6.70;99.90;;;;;;5052804;28;20216;-60
2024/01/25 07:24:29;;;;;;;25.58;4.43;;;6.70;99.90;;;;;;5052365;28;20272;-61
2024/01/25 07:26:57;;;;;;;23.52;3.65;;;6.60;99.90;;;;;;5053180;28;20206;-61
2024/01/25 07:29:25;;;;;;;25.50;4.53;;;6.60;99.90;;;;;;5053368;28;20202;-61
2024/01/25 07:31:54;;;;;;;21.77;4.03;;;6.60;99.90;;;;;;5053551;28;20328;-61
2024/01/25 07:34:25;;;;;;;15.55;3.28;;;6.50;99.90;;;;;;5053178;28;20725;-62
2024/01/25 07:36:53;;;;;;;22.33;4.18;;;6.50;99.90;;;;;;5053456;28;20249;-61
2024/01/25 07:39:20;;;;;;;24.08;4.13;;;6.40;99.90;;;;;;5053043;28;20765;-61
2024/01/25 07:41:48;;;;;;;22.27;3.85;;;6.40;99.90;;;;;;5052825;28;20658;-61
2024/01/25 07:44:19;;;;;;;20.92;4.00;;;6.30;99.90;;;;;;5052901;28;20226;-61
2024/01/25 07:46:47;;;;;;;20.33;3.72;;;6.30;99.90;;;;;;5053103;28;20209;-60
2024/01/25 07:49:16;;;;;;;15.88;3.65;;;6.30;99.90;;;;;;5052952;28;20210;-60
2024/01/25 07:51:44;;;;;;;24.50;3.85;;;6.30;99.90;;;;;;5053096;28;20195;-60
2024/01/25 07:54:13;;;;;;;30.30;4.28;;;6.20;99.90;;;;;;5052581;28;20324;-59
2024/01/25 07:56:41;;;;;;;23.45;4.30;;;6.20;99.90;;;;;;5053140;28;20237;-58
2024/01/25 07:59:09;;;;;;;18.42;4.38;;;6.20;99.90;;;;;;5052599;28;20245;-60
2024/01/25 08:01:36;;;;;;;28.70;4.68;;;6.20;99.90;;;;;;5052681;28;20280;-59
2024/01/25 08:04:05;;;;;;;20.48;3.13;;;6.10;99.90;;;;;;5052450;28;20658;-60
2024/01/25 08:06:34;;;;;;;22.48;4.05;;;6.10;99.90;;;;;;5052659;28;20233;-59
2024/01/25 08:09:02;;;;;;;22.23;3.38;;;6.10;99.90;;;;;;5052809;28;20202;-59
2024/01/25 08:11:30;;;;;;;21.85;4.25;;;6.10;99.90;;;;;;5052804;28;20202;-59
2024/01/25 08:13:58;;;;;;;25.13;3.92;;;6.10;99.90;;;;;;5052889;28;20222;-60
2024/01/25 08:16:26;;;;;;;24.45;4.25;;;6.20;99.90;;;;;;5052696;28;20206;-60
2024/01/25 08:18:54;;;;;;;22.45;4.32;;;6.20;99.90;;;;;;5052446;28;20240;-60
2024/01/25 08:21:22;;;;;;;28.50;5.15;;;6.20;99.90;;;;;;5052109;28;20583;-59
2024/01/25 08:23:52;;;;;;;18.95;3.50;;;6.30;99.90;;;;;;5052322;28;20222;-59
2024/01/25 08:26:20;;;;;;;23.65;4.60;;;6.30;99.90;;;;;;5052427;28;20233;-59
2024/01/25 08:28:48;;;;;;;18.95;3.85;;;6.30;99.90;;;;;;5052358;28;20198;-59
2024/01/25 08:31:17;;;;;;;23.75;3.78;;;6.30;99.90;;;;;;5052101;28;20201;-59
2024/01/25 08:33:47;;;;;;;15.27;3.65;;;6.30;99.90;;;;;;5051965;28;20275;-60
2024/01/25 08:36:18;;;;;;;12.73;3.05;;;6.30;99.90;;;;;;5052250;28;20260;-60
2024/01/25 08:38:46;;;;;;;22.63;4.70;;;6.30;99.90;;;;;;5051952;28;20292;-59
2024/01/25 08:41:16;;;;;;;25.83;3.75;;;6.30;99.90;;;;;;5051804;28;20226;-58
2024/01/25 08:43:44;;;;;;;29.10;4.80;;;6.40;99.90;;;;;;5051981;28;20221;-58
2024/01/25 08:46:14;;;;;;;32.45;4.47;;;6.40;99.90;;;;;;5052064;28;20206;-59
2024/01/25 08:48:42;;;;;;;33.50;5.43;;;6.50;99.90;;;;;;5051971;28;20214;-59
2024/01/25 08:51:10;;;;;;;20.65;4.80;;;6.60;99.90;;;;;;5051919;28;20212;-59
2024/01/25 08:53:38;;;;;;;21.70;5.00;;;6.70;99.90;;;;;;5051855;28;20234;-59
2024/01/25 08:56:07;;;;;;;23.02;4.40;;;6.70;99.90;;;;;;5051922;28;20210;-59
2024/01/25 08:58:36;;;;;;;21.35;3.58;;;6.80;99.90;;;;;;5043797;28;20210;-60
2024/01/25 09:01:04;;;;;;;24.38;4.53;;;6.90;99.90;;;;;;5051568;28;20988;-58
2024/01/25 09:03:33;;;;;;;32.72;4.80;;;6.90;99.90;;;;;;5051701;28;20226;-59
2024/01/25 09:06:05;;;;;;;25.70;5.13;;;7.00;99.90;;;;;;5051847;28;20220;-60
2024/01/25 09:08:33;;;;;;;31.08;5.65;;;7.00;99.90;;;;;;5051666;28;20202;-60
2024/01/25 09:11:01;;;;;;;26.73;4.90;;;7.10;99.90;;;;;;5051559;28;20620;-60
2024/01/25 09:13:30;;;;;;;31.10;4.95;;;7.30;99.90;;;;;;5051199;28;20229;-60
2024/01/25 09:15:59;;;;;;;41.15;5.90;;;7.30;99.90;;;;;;5051254;28;20638;-60
2024/01/25 09:18:27;;;;;;;28.00;5.18;;;7.50;99.90;;;;;;5051413;28;20298;-60
2024/01/25 09:20:55;;;;;;;28.02;5.45;;;7.60;99.90;;;;;;5051516;28;20615;-60
2024/01/25 09:23:23;;;;;;;30.08;5.30;;;7.70;99.90;;;;;;5050823;28;20707;-60
2024/01/25 09:25:52;;;;;;;35.78;6.00;;;7.90;99.90;;;;;;5051311;28;20206;-60
2024/01/25 09:28:20;;;;;;;29.38;5.30;;;8.10;99.90;;;;;;5051291;28;20293;-60
2024/01/25 09:30:48;;;;;;;30.42;5.05;;;8.30;99.90;;;;;;5051609;28;20202;-60
2024/01/25 09:33:21;;;;;;;31.42;5.88;;;8.50;99.90;;;;;;5050692;28;20232;-60
2024/01/25 09:35:49;;;;;;;29.35;4.90;;;8.60;99.90;;;;;;5051378;28;20202;-60
2024/01/25 09:38:18;;;;;;;33.00;5.22;;;8.60;99.90;;;;;;5051217;28;20209;-60
2024/01/25 09:40:47;;;;;;;31.98;5.88;;;8.70;99.90;;;;;;5051434;28;20206;-60
2024/01/25 09:43:16;;;;;;;36.50;5.95;;;8.70;99.90;;;;;;5050768;28;20225;-60
2024/01/25 09:45:45;;;;;;;32.80;5.75;;;8.70;99.90;;;;;;5051518;28;20206;-60
2024/01/25 09:48:14;;;;;;;38.38;7.18;;;8.60;99.90;;;;;;5051379;28;20198;-60
2024/01/25 09:50:44;;;;;;;30.08;5.78;;;8.70;99.90;;;;;;5051321;28;20198;-60
2024/01/25 09:53:13;;;;;;;38.80;5.80;;;8.70;99.90;;;;;;5050656;28;20249;-60
2024/01/25 09:55:41;;;;;;;39.47;6.07;;;8.90;99.90;;;;;;5051394;28;20296;-60
2024/01/25 09:58:09;;;;;;;36.05;6.13;;;9.00;99.90;;;;;;5051265;28;20210;-60
2024/01/25 10:00:37;;;;;;;28.23;5.53;;;9.10;99.90;;;;;;5051315;28;20582;-60
2024/01/25 10:03:06;;;;;;;35.22;5.03;;;9.20;99.90;;;;;;5050705;28;20234;-61
2024/01/25 10:05:33;;;;;;;26.40;4.72;;;9.30;99.90;;;;;;5050939;28;20225;-60
2024/01/25 10:08:03;;;;;;;30.88;5.82;;;9.40;99.90;;;;;;5050976;28;20210;-61
2024/01/25 10:10:33;;;;;;;29.90;5.90;;;9.50;99.90;;;;;;5051360;28;20226;-60
2024/01/25 10:13:01;;;;;;;33.83;4.93;;;9.60;99.90;;;;;;5050688;28;20287;-58
2024/01/25 10:15:29;;;;;;;25.45;5.55;;;9.70;99.90;;;;;;5050984;28;20206;-58
2024/01/25 10:17:56;;;;;;;25.98;5.13;;;9.70;99.90;;;;;;5050802;28;20237;-58
2024/01/25 10:20:44;;;;;;;26.75;5.13;;;9.70;99.90;;;;;;5043954;28;20209;-58
2024/01/25 10:23:14;;;;;;;33.92;5.30;;;9.70;99.90;;;;;;5050376;28;20233;-59
2024/01/25 10:25:42;;;;;;;22.65;5.28;;;9.80;99.90;;;;;;5050973;28;20297;-58
2024/01/25 10:28:10;;;;;;;29.40;5.07;;;9.80;99.90;;;;;;5051790;28;20205;-59
2024/01/25 10:30:38;;;;;;;24.05;4.57;;;10.00;99.90;;;;;;5046445;28;20206;-59
2024/01/25 10:33:06;;;;;;;35.65;5.80;;;10.10;99.90;;;;;;5054201;28;20222;-59
2024/01/25 10:35:34;;;;;;;35.00;4.82;;;10.20;99.90;;;;;;5054791;28;20202;-59
2024/01/25 10:38:03;;;;;;;26.92;5.45;;;10.30;99.90;;;;;;5054175;28;20683;-60
2024/01/25 10:40:32;;;;;;;31.95;5.10;;;10.40;99.90;;;;;;5054439;28;20217;-58
2024/01/25 10:43:01;;;;;;;24.67;4.65;;;10.50;99.90;;;;;;5053705;28;20257;-58
2024/01/25 10:45:29;;;;;;;29.23;5.78;;;10.60;99.90;;;;;;5054476;28;20240;-60
2024/01/25 10:47:56;;;;;;;32.03;5.32;;;10.70;99.90;;;;;;5054287;28;20635;-60
2024/01/25 10:50:25;;;;;;;25.80;4.85;;;10.70;99.90;;;;;;5054212;28;20206;-60
2024/01/25 10:52:53;;;;;;;27.40;5.18;;;10.60;99.90;;;;;;5053712;28;20612;-61
2024/01/25 10:55:21;;;;;;;37.78;5.65;;;10.60;99.90;;;;;;5054083;28;20202;-60
2024/01/25 10:57:50;;;;;;;32.20;5.47;;;10.60;99.90;;;;;;5054170;28;20205;-61
2024/01/25 11:00:19;;;;;;;31.80;4.55;;;10.60;99.90;;;;;;5054228;28;20209;-61
2024/01/25 11:02:49;;;;;;;27.83;5.05;;;10.70;99.90;;;;;;5053910;28;20257;-60
2024/01/25 11:05:18;;;;;;;22.85;4.07;;;10.70;99.90;;;;;;5053605;28;20217;-60
2024/01/25 11:07:47;;;;;;;30.13;5.28;;;10.80;99.90;;;;;;5053958;28;20660;-61
2024/01/25 11:10:16;;;;;;;30.85;5.40;;;10.90;99.90;;;;;;5053511;28;20567;-60
2024/01/25 11:12:51;;;;;;;32.83;5.55;;;10.80;99.90;;;;;;5053646;28;20201;-60
2024/01/25 11:15:23;;;;;;;37.20;5.93;;;10.90;99.90;;;;;;5053772;28;20293;-60
2024/01/25 11:17:52;;;;;;;25.67;5.80;;;10.90;99.90;;;;;;5053776;28;20205;-60
2024/01/25 11:20:22;;;;;;;30.35;5.47;;;10.90;99.90;;;;;;5053447;28;20202;-60
2024/01/25 11:22:55;;;;;;;24.23;5.15;;;10.80;99.90;;;;;;5053180;28;20314;-61
2024/01/25 11:25:23;;;;;;;28.63;5.30;;;10.80;99.90;;;;;;5053710;28;20217;-61
2024/01/25 11:27:52;;;;;;;28.88;5.20;;;10.70;99.90;;;;;;5052784;28;20294;-60
2024/01/25 11:30:21;;;;;;;26.70;5.70;;;10.70;99.90;;;;;;5049422;28;20236;-60
2024/01/25 11:32:49;;;;;;;28.55;5.95;;;10.70;99.90;;;;;;5052697;28;20225;-60
2024/01/25 11:35:17;;;;;;;26.63;4.93;;;10.70;99.90;;;;;;5053301;28;20630;-61
2024/01/25 11:37:46;;;;;;;25.35;5.25;;;10.70;99.90;;;;;;5053502;28;20294;-60
2024/01/25 11:40:15;;;;;;;30.50;5.10;;;10.80;99.90;;;;;;5052518;28;20244;-60
2024/01/25 11:42:44;;;;;;;22.45;5.00;;;10.90;99.90;;;;;;5052931;28;20801;-60
2024/01/25 11:45:14;;;;;;;34.42;5.20;;;11.00;99.90;;;;;;5053159;28;20591;-61
2024/01/25 11:47:42;;;;;;;27.98;5.95;;;11.10;99.90;;;;;;5053103;28;20225;-61
2024/01/25 11:50:11;;;;;;;28.85;5.25;;;11.20;99.90;;;;;;5053144;28;20213;-61
2024/01/25 11:52:39;;;;;;;28.08;5.43;;;11.30;99.90;;;;;;5052829;28;20202;-61
2024/01/25 11:55:09;;;;;;;22.25;5.60;;;11.30;99.90;;;;;;5052888;28;20236;-61
2024/01/25 11:57:38;;;;;;;32.15;5.65;;;11.30;99.90;;;;;;5052967;28;20217;-60
2024/01/25 12:00:09;;;;;;;31.67;5.18;;;11.30;99.90;;;;;;5052565;28;20210;-62
2024/01/25 12:02:38;;;;;;;34.03;5.15;;;11.30;99.90;;;;;;5052621;28;20222;-61
2024/01/25 12:05:07;;;;;;;24.15;4.85;;;11.30;99.90;;;;;;5052683;28;20205;-61
2024/01/25 12:07:36;;;;;;;28.90;5.07;;;11.30;99.90;;;;;;5051968;28;20217;-61
2024/01/25 12:10:05;;;;;;;28.23;5.53;;;11.30;99.90;;;;;;5052710;28;20245;-61
2024/01/25 12:12:34;;;;;;;19.58;4.57;;;11.30;99.90;;;;;;5052268;28;20289;-61
2024/01/25 12:15:03;;;;;;;27.40;4.95;;;11.40;99.90;;;;;;5052880;28;20293;-61
2024/01/25 12:17:31;;;;;;;27.00;4.78;;;11.40;99.90;;;;;;5052850;28;20213;-61
2024/01/25 12:20:00;;;;;;;23.35;4.80;;;11.40;99.90;;;;;;5052527;28;20205;-61
2024/01/25 12:22:29;;;;;;;27.33;4.95;;;11.50;99.90;;;;;;5052193;28;20293;-61
2024/01/25 12:24:58;;;;;;;27.27;5.07;;;11.60;99.90;;;;;;5052221;28;20659;-61
2024/01/25 12:27:30;;;;;;;24.75;4.85;;;11.80;99.90;;;;;;5052663;28;20210;-61
2024/01/25 12:29:58;;;;;;;24.38;4.50;;;11.80;99.90;;;;;;5052284;28;20259;-60
2024/01/25 12:32:26;;;;;;;30.00;5.47;;;11.80;99.90;;;;;;5052241;28;20214;-61
2024/01/25 12:34:55;;;;;;;24.20;4.43;;;11.80;99.90;;;;;;5052072;28;20664;-61
2024/01/25 12:37:25;;;;;;;21.17;4.28;;;11.90;99.90;;;;;;5052178;28;20285;-60
2024/01/25 12:39:54;;;;;;;27.95;4.60;;;11.90;99.90;;;;;;5052010;28;20206;-62
2024/01/25 12:42:22;;;;;;;19.95;4.65;;;12.00;99.90;;;;;;5051961;28;20284;-60
2024/01/25 12:44:53;;;;;;;30.98;4.90;;;11.90;99.90;;;;;;5051679;28;20688;-61
2024/01/25 12:47:21;;;;;;;26.23;4.75;;;11.90;99.90;;;;;;5051940;28;20201;-61
2024/01/25 12:49:49;;;;;;;27.40;4.43;;;11.90;99.90;;;;;;5051613;28;20629;-61
2024/01/25 12:52:18;;;;;;;27.55;4.80;;;11.90;99.90;;;;;;5051067;28;20629;-61